createdAt,value
2023-02-27T00:00:42.402Z,61.87
2023-02-27T00:03:09.033Z,62.08
2023-02-27T00:05:35.799Z,62.68
2023-02-27T00:08:02.342Z,63.69
2023-02-27T00:10:29.106Z,62.86
2023-02-27T00:12:56.087Z,62.58
2023-02-27T00:15:23.380Z,62.65
2023-02-27T00:17:50.060Z,62.18
2023-02-27T00:20:18.734Z,63.39
2023-02-27T00:22:45.899Z,63.91
2023-02-27T00:25:13.647Z,64.65
2023-02-27T00:27:40.881Z,63.68
2023-02-27T00:30:10.006Z,65.83
2023-02-27T00:32:36.912Z,65.25
2023-02-27T00:35:05.246Z,65.96
2023-02-27T00:37:32.185Z,65.68
2023-02-27T00:39:58.923Z,66.67
2023-02-27T00:42:25.684Z,67.24
2023-02-27T00:44:52.237Z,65.53
2023-02-27T00:47:18.931Z,69.02
2023-02-27T00:49:45.720Z,65.50
2023-02-27T00:52:12.590Z,65.33
2023-02-27T00:54:39.470Z,65.22
2023-02-27T00:57:06.036Z,65.95
2023-02-27T00:59:32.607Z,66.89
2023-02-27T01:01:59.092Z,68.24
2023-02-27T01:04:25.732Z,70.90
2023-02-27T01:06:52.337Z,69.08
2023-02-27T01:09:18.957Z,69.32
2023-02-27T01:11:45.622Z,66.64
2023-02-27T01:14:12.597Z,69.55
2023-02-27T01:16:39.271Z,67.98
2023-02-27T01:19:05.928Z,66.94
2023-02-27T01:21:32.492Z,66.66
2023-02-27T01:23:59.002Z,69.01
2023-02-27T01:26:25.860Z,67.03
2023-02-27T01:28:52.415Z,67.14
2023-02-27T01:31:19.180Z,67.53
2023-02-27T01:33:45.839Z,70.32
2023-02-27T01:36:12.471Z,69.60
2023-02-27T01:38:39.056Z,71.20
2023-02-27T01:41:07.403Z,70.29
2023-02-27T01:43:34.158Z,69.17
2023-02-27T01:46:01.333Z,69.07
2023-02-27T01:48:38.587Z,71.31
2023-02-27T01:51:14.342Z,70.39
2023-02-27T01:53:44.330Z,70.92
2023-02-27T01:56:15.483Z,68.51
2023-02-27T01:58:43.267Z,68.38
2023-02-27T02:01:09.862Z,70.57
2023-02-27T02:03:47.895Z,69.28
2023-02-27T02:06:14.566Z,68.92
2023-02-27T02:08:47.856Z,69.05
2023-02-27T02:11:18.036Z,69.28
2023-02-27T02:13:45.201Z,70.93
2023-02-27T02:16:42.733Z,73.99
2023-02-27T02:19:15.190Z,74.40
2023-02-27T02:22:06.662Z,74.31
2023-02-27T02:24:58.327Z,75.14
2023-02-27T02:28:06.755Z,74.10
2023-02-27T02:31:05.256Z,72.60
2023-02-27T02:33:59.683Z,70.20
2023-02-27T02:36:29.007Z,70.67
2023-02-27T02:39:26.272Z,72.77
2023-02-27T02:41:55.500Z,68.60
2023-02-27T02:44:39.798Z,69.19
2023-02-27T02:47:40.910Z,70.12
2023-02-27T02:50:18.754Z,72.18
2023-02-27T02:53:00.446Z,72.28
2023-02-27T02:55:35.658Z,74.51
2023-02-27T02:58:12.314Z,72.06
2023-02-27T03:00:55.519Z,70.75
2023-02-27T03:03:31.351Z,70.58
2023-02-27T03:06:07.033Z,70.33
2023-02-27T03:08:39.243Z,70.65
2023-02-27T03:11:06.429Z,73.32
2023-02-27T03:13:57.565Z,75.35
2023-02-27T03:16:32.269Z,71.93
2023-02-27T03:19:11.460Z,73.33
2023-02-27T03:21:56.593Z,74.40
2023-02-27T03:24:31.453Z,72.36
2023-02-27T03:27:02.862Z,72.90
2023-02-27T03:29:38.898Z,73.73
2023-02-27T03:32:13.515Z,73.49
2023-02-27T03:34:42.491Z,74.17
2023-02-27T03:37:36.046Z,75.26
2023-02-27T03:40:14.726Z,75.10
2023-02-27T03:43:01.027Z,75.79
2023-02-27T03:46:03.183Z,74.96
2023-02-27T03:48:30.663Z,75.22
2023-02-27T03:50:58.344Z,72.41
2023-02-27T03:53:31.458Z,71.99
2023-02-27T03:55:59.866Z,71.54
2023-02-27T03:58:26.542Z,71.00
2023-02-27T04:00:53.451Z,70.54
2023-02-27T04:03:21.263Z,71.78
2023-02-27T04:05:47.975Z,71.84
2023-02-27T04:08:49.720Z,73.34
2023-02-27T04:11:35.218Z,73.19
2023-02-27T04:14:23.545Z,71.70
2023-02-27T04:17:09.285Z,71.46
2023-02-27T04:20:10.531Z,71.79
2023-02-27T04:22:39.128Z,73.64
2023-02-27T04:25:13.465Z,75.81
2023-02-27T04:27:50.181Z,76.60
2023-02-27T04:30:28.189Z,76.55
2023-02-27T04:33:03.734Z,75.90
2023-02-27T04:35:43.736Z,76.94
2023-02-27T04:38:33.089Z,78.37
2023-02-27T04:41:23.195Z,77.23
2023-02-27T04:43:51.142Z,74.84
2023-02-27T04:46:22.235Z,75.06
2023-02-27T04:48:57.846Z,74.13
2023-02-27T04:51:35.355Z,75.06
2023-02-27T04:54:12.691Z,75.65
2023-02-27T04:56:46.553Z,75.86
2023-02-27T04:59:21.511Z,75.65
2023-02-27T05:01:57.745Z,76.23
2023-02-27T05:04:27.283Z,76.58
2023-02-27T05:06:55.876Z,75.01
2023-02-27T05:09:38.302Z,76.56
2023-02-27T05:12:17.149Z,76.76
2023-02-27T05:14:55.621Z,75.20
2023-02-27T05:17:29.758Z,74.12
2023-02-27T05:19:56.419Z,74.56
2023-02-27T05:22:42.077Z,75.88
2023-02-27T05:25:20.662Z,73.21
2023-02-27T05:28:02.075Z,72.98
2023-02-27T05:30:43.764Z,73.80
2023-02-27T05:33:21.098Z,73.80
2023-02-27T05:36:03.588Z,74.74
2023-02-27T05:38:38.653Z,75.08
2023-02-27T05:41:17.476Z,75.05
2023-02-27T05:43:51.051Z,74.25
2023-02-27T05:46:24.657Z,74.54
2023-02-27T05:48:57.159Z,76.17
2023-02-27T05:51:30.521Z,75.88
2023-02-27T05:54:06.686Z,74.69
2023-02-27T05:56:36.884Z,75.45
2023-02-27T05:59:10.613Z,74.45
2023-02-27T06:01:37.250Z,74.31
2023-02-27T06:04:03.829Z,75.22
2023-02-27T06:06:31.239Z,77.54
2023-02-27T06:08:58.004Z,75.85
2023-02-27T06:11:24.592Z,77.03
2023-02-27T06:13:51.150Z,75.78
2023-02-27T06:16:17.803Z,79.09
2023-02-27T06:18:44.517Z,76.27
2023-02-27T06:21:13.300Z,76.75
2023-02-27T06:23:40.135Z,76.06
2023-02-27T06:26:06.774Z,75.92
2023-02-27T06:28:33.434Z,76.70
2023-02-27T06:31:00.284Z,75.50
2023-02-27T06:33:27.021Z,76.01
2023-02-27T06:35:53.702Z,76.28
2023-02-27T06:38:20.447Z,75.19
2023-02-27T06:40:47.014Z,76.16
2023-02-27T06:43:14.922Z,77.18
2023-02-27T06:45:41.825Z,76.33
2023-02-27T06:48:08.533Z,77.04
2023-02-27T06:50:35.520Z,75.89
2023-02-27T06:53:02.207Z,75.83
2023-02-27T06:55:28.937Z,76.24
2023-02-27T06:57:55.479Z,75.39
2023-02-27T07:00:22.536Z,77.04
2023-02-27T07:02:49.266Z,76.19
2023-02-27T07:05:16.470Z,76.63
2023-02-27T07:07:42.987Z,76.51
2023-02-27T07:10:13.111Z,77.40
2023-02-27T07:12:40.634Z,76.88
2023-02-27T07:15:08.608Z,76.76
2023-02-27T07:17:35.124Z,77.04
2023-02-27T07:20:01.639Z,76.92
2023-02-27T07:22:28.198Z,78.52
2023-02-27T07:24:54.789Z,77.40
2023-02-27T07:27:21.462Z,75.92
2023-02-27T07:29:48.097Z,76.15
2023-02-27T07:32:14.889Z,75.87
2023-02-27T07:34:41.532Z,75.75
2023-02-27T07:37:08.279Z,76.95
2023-02-27T07:39:34.995Z,77.70
2023-02-27T07:42:01.769Z,78.08
2023-02-27T07:44:28.286Z,78.97
2023-02-27T07:46:54.942Z,79.07
2023-02-27T07:49:21.538Z,79.72
2023-02-27T07:51:48.111Z,79.58
2023-02-27T07:54:14.685Z,80.69
2023-02-27T07:56:41.193Z,80.99
2023-02-27T07:59:08.087Z,80.71
2023-02-27T08:01:34.717Z,80.74
2023-02-27T08:04:01.480Z,80.26
2023-02-27T08:06:28.456Z,81.28
2023-02-27T08:08:55.140Z,80.72
2023-02-27T08:11:21.601Z,81.42
2023-02-27T08:14:03.830Z,81.11
2023-02-27T08:16:32.205Z,81.06
2023-02-27T08:19:00.235Z,80.21
2023-02-27T08:21:27.879Z,81.00
2023-02-27T08:23:55.110Z,80.54
2023-02-27T08:26:21.846Z,80.08
2023-02-27T08:28:48.526Z,80.63
2023-02-27T08:31:15.448Z,80.16
2023-02-27T08:33:42.170Z,80.26
2023-02-27T08:36:10.133Z,78.68
2023-02-27T08:38:36.856Z,79.96
2023-02-27T08:41:04.442Z,79.86
2023-02-27T08:43:31.093Z,77.84
2023-02-27T08:45:57.789Z,80.26
2023-02-27T08:48:25.015Z,80.84
2023-02-27T08:50:52.216Z,80.74
2023-02-27T08:53:19.331Z,80.76
2023-02-27T08:55:51.096Z,80.66
2023-02-27T08:58:18.695Z,80.96
2023-02-27T09:00:46.062Z,80.11
2023-02-27T09:03:12.906Z,80.73
2023-02-27T09:05:40.785Z,78.96
2023-02-27T09:08:07.685Z,78.19
2023-02-27T09:10:34.951Z,77.83
2023-02-27T09:13:02.432Z,81.13
2023-02-27T09:15:30.486Z,77.17
2023-02-27T09:18:02.659Z,78.70
2023-02-27T09:20:31.810Z,78.12
2023-02-27T09:22:59.687Z,78.23
2023-02-27T09:25:27.070Z,79.80
2023-02-27T09:27:53.794Z,78.99
2023-02-27T09:30:21.173Z,78.51
2023-02-27T09:32:48.254Z,74.84
2023-02-27T09:35:20.335Z,75.89
2023-02-27T09:37:48.480Z,76.43
2023-02-27T09:40:29.305Z,76.50
2023-02-27T09:43:02.937Z,77.86
2023-02-27T09:45:31.978Z,73.96
2023-02-27T09:48:10.636Z,74.19
2023-02-27T09:50:47.662Z,73.43
2023-02-27T09:53:31.370Z,75.68
2023-02-27T09:56:06.986Z,77.87
2023-02-27T09:59:02.458Z,74.36
2023-02-27T10:01:40.774Z,72.49
2023-02-27T10:04:45.580Z,68.04
2023-02-27T10:07:30.787Z,71.08
2023-02-27T10:10:05.183Z,73.61
2023-02-27T10:12:45.349Z,71.96
2023-02-27T10:15:15.368Z,74.90
2023-02-27T10:17:51.252Z,70.54
2023-02-27T10:20:28.386Z,71.35
2023-02-27T10:22:59.984Z,71.94
2023-02-27T10:25:31.567Z,70.11
2023-02-27T10:28:11.067Z,69.84
2023-02-27T10:30:37.989Z,67.14
2023-02-27T10:33:29.261Z,66.83
2023-02-27T10:35:56.080Z,68.08
2023-02-27T10:38:35.244Z,68.88
2023-02-27T10:41:03.240Z,65.59
2023-02-27T10:43:30.316Z,66.01
2023-02-27T10:46:01.042Z,64.93
2023-02-27T10:48:27.836Z,63.53
2023-02-27T10:51:19.796Z,64.46
2023-02-27T10:53:46.439Z,64.19
2023-02-27T10:56:24.330Z,61.94
2023-02-27T10:59:04.985Z,63.46
2023-02-27T11:01:52.428Z,60.89
2023-02-27T11:04:40.486Z,60.18
2023-02-27T11:07:10.545Z,61.79
2023-02-27T11:09:37.978Z,60.91
2023-02-27T11:12:22.757Z,57.84
2023-02-27T11:14:54.303Z,56.69
2023-02-27T11:17:28.834Z,58.97
2023-02-27T11:19:56.813Z,58.13
2023-02-27T11:22:26.481Z,57.41
2023-02-27T11:25:16.384Z,55.09
2023-02-27T11:27:43.213Z,55.77
2023-02-27T11:30:23.904Z,58.54
2023-02-27T11:32:52.027Z,57.86
2023-02-27T11:35:26.846Z,52.94
2023-02-27T11:37:56.799Z,57.03
2023-02-27T11:40:30.434Z,54.45
2023-02-27T11:43:03.884Z,56.09
2023-02-27T11:46:10.753Z,56.27
2023-02-27T11:48:35.687Z,54.60
2023-02-27T11:51:11.189Z,54.09
2023-02-27T11:54:18.519Z,51.05
2023-02-27T11:56:48.328Z,55.09
2023-02-27T11:59:42.163Z,50.03
2023-02-27T12:02:32.863Z,51.29
2023-02-27T12:05:17.814Z,54.19
2023-02-27T12:07:52.752Z,54.60
2023-02-27T12:10:25.419Z,54.80
2023-02-27T12:12:57.537Z,54.09
2023-02-27T12:15:44.204Z,53.82
2023-02-27T12:18:21.317Z,53.95
2023-02-27T12:20:57.660Z,51.94
2023-02-27T12:23:33.305Z,51.96
2023-02-27T12:26:07.251Z,52.46
2023-02-27T12:28:57.904Z,52.13
2023-02-27T12:31:41.149Z,51.16
2023-02-27T12:34:29.476Z,51.48
2023-02-27T12:37:12.300Z,52.65
2023-02-27T12:39:42.141Z,50.17
2023-02-27T12:42:11.780Z,51.10
2023-02-27T12:45:02.381Z,49.42
2023-02-27T12:47:58.601Z,49.72
2023-02-27T12:50:29.809Z,49.80
2023-02-27T12:53:23.051Z,49.14
2023-02-27T12:55:57.703Z,48.62
2023-02-27T12:58:56.090Z,50.84
2023-02-27T13:01:48.192Z,48.74
2023-02-27T13:04:41.857Z,49.50
2023-02-27T13:07:18.207Z,49.92
2023-02-27T13:09:50.345Z,48.98
2023-02-27T13:12:36.476Z,50.47
2023-02-27T13:15:16.943Z,49.66
2023-02-27T13:17:49.820Z,49.61
2023-02-27T13:20:22.489Z,50.17
2023-02-27T13:22:55.869Z,49.77
2023-02-27T13:25:23.900Z,50.83
2023-02-27T13:28:01.370Z,49.34
2023-02-27T13:30:41.810Z,49.84
2023-02-27T13:33:20.643Z,49.83
2023-02-27T13:36:24.216Z,50.83
2023-02-27T13:38:54.435Z,49.87
2023-02-27T13:41:20.966Z,49.41
2023-02-27T13:43:52.499Z,49.71
2023-02-27T13:46:37.313Z,48.95
2023-02-27T13:49:20.104Z,48.59
2023-02-27T13:51:58.166Z,49.89
2023-02-27T13:54:33.601Z,50.63
2023-02-27T13:57:09.150Z,50.08
2023-02-27T13:59:39.635Z,50.73
2023-02-27T14:02:12.348Z,49.54
2023-02-27T14:04:50.568Z,49.01
2023-02-27T14:07:21.562Z,49.47
2023-02-27T14:09:53.602Z,49.46
2023-02-27T14:12:45.454Z,49.07
2023-02-27T14:15:18.529Z,48.54
2023-02-27T14:17:47.684Z,49.41
2023-02-27T14:20:17.368Z,49.46
2023-02-27T14:23:15.871Z,49.25
2023-02-27T14:25:50.636Z,49.70
2023-02-27T14:28:26.008Z,49.04
2023-02-27T14:30:59.151Z,49.14
2023-02-27T14:33:40.638Z,49.17
2023-02-27T14:36:19.970Z,47.47
2023-02-27T14:38:47.018Z,49.21
2023-02-27T14:41:35.234Z,48.99
2023-02-27T14:44:02.488Z,48.94
2023-02-27T14:46:36.781Z,49.05
2023-02-27T14:49:07.713Z,47.00
2023-02-27T14:51:37.468Z,48.82
2023-02-27T14:54:12.869Z,48.21
2023-02-27T14:56:40.165Z,48.38
2023-02-27T14:59:26.721Z,47.62
2023-02-27T15:01:56.533Z,48.24
2023-02-27T15:04:27.531Z,48.35
2023-02-27T15:06:56.460Z,47.49
2023-02-27T15:09:34.795Z,46.96
2023-02-27T15:12:04.440Z,48.52
2023-02-27T15:14:36.064Z,48.72
2023-02-27T15:17:04.442Z,48.75
2023-02-27T15:19:31.524Z,49.12
2023-02-27T15:22:03.464Z,48.55
2023-02-27T15:24:49.573Z,48.39
2023-02-27T15:27:20.256Z,48.74
2023-02-27T15:29:52.775Z,48.87
2023-02-27T15:32:32.948Z,48.75
2023-02-27T15:35:05.321Z,48.48
2023-02-27T15:37:34.022Z,49.07
2023-02-27T15:40:05.240Z,48.82
2023-02-27T15:42:35.379Z,49.10
2023-02-27T15:45:04.186Z,49.03
2023-02-27T15:47:32.834Z,49.12
2023-02-27T15:50:09.197Z,49.21
2023-02-27T15:52:44.093Z,49.19
2023-02-27T15:55:16.369Z,48.95
2023-02-27T15:57:56.587Z,48.87
2023-02-27T16:00:30.198Z,48.91
2023-02-27T16:02:57.851Z,49.05
2023-02-27T16:05:27.350Z,49.23
2023-02-27T16:07:55.622Z,49.28
2023-02-27T16:10:36.834Z,49.17
2023-02-27T16:13:36.968Z,48.80
2023-02-27T16:16:23.042Z,49.53
2023-02-27T16:18:55.792Z,49.54
2023-02-27T16:21:27.913Z,49.09
2023-02-27T16:23:55.131Z,49.30
2023-02-27T16:26:24.694Z,49.51
2023-02-27T16:28:51.711Z,49.76
2023-02-27T16:31:26.107Z,49.57
2023-02-27T16:33:55.559Z,49.41
2023-02-27T16:36:25.068Z,49.60
2023-02-27T16:38:52.220Z,49.99
2023-02-27T16:41:20.917Z,50.05
2023-02-27T16:43:48.725Z,50.24
2023-02-27T16:46:20.634Z,50.31
2023-02-27T16:48:51.597Z,50.22
2023-02-27T16:51:23.903Z,50.45
2023-02-27T16:53:52.019Z,50.55
2023-02-27T16:56:23.705Z,50.43
2023-02-27T16:58:55.908Z,50.68
2023-02-27T17:01:22.572Z,50.82
2023-02-27T17:03:49.334Z,51.13
2023-02-27T17:06:15.864Z,50.87
2023-02-27T17:08:44.088Z,51.18
2023-02-27T17:11:11.047Z,51.18
2023-02-27T17:13:37.808Z,51.34
2023-02-27T17:16:05.827Z,51.37
2023-02-27T17:18:33.670Z,51.90
2023-02-27T17:21:02.923Z,51.80
2023-02-27T17:23:29.953Z,51.89
2023-02-27T17:25:57.179Z,52.21
2023-02-27T17:28:24.310Z,52.15
2023-02-27T17:30:51.130Z,52.27
2023-02-27T17:33:17.859Z,52.40
2023-02-27T17:35:44.400Z,52.09
2023-02-27T17:38:11.048Z,52.43
2023-02-27T17:40:39.366Z,52.82
2023-02-27T17:43:06.228Z,52.79
2023-02-27T17:45:33.028Z,52.71
2023-02-27T17:47:59.707Z,52.82
2023-02-27T17:50:26.498Z,53.25
2023-02-27T17:52:53.087Z,53.00
2023-02-27T17:55:19.813Z,53.45
2023-02-27T17:57:46.416Z,53.55
2023-02-27T18:00:15.559Z,53.63
2023-02-27T18:02:45.105Z,53.56
2023-02-27T18:05:12.113Z,53.72
2023-02-27T18:07:39.064Z,53.78
2023-02-27T18:10:09.092Z,53.38
2023-02-27T18:12:36.649Z,53.95
2023-02-27T18:15:04.132Z,53.75
2023-02-27T18:17:31.111Z,54.54
2023-02-27T18:19:58.178Z,54.33
2023-02-27T18:22:25.216Z,54.68
2023-02-27T18:24:55.724Z,55.25
2023-02-27T18:27:22.489Z,54.87
2023-02-27T18:29:52.218Z,55.57
2023-02-27T18:32:19.302Z,55.53
2023-02-27T18:34:45.886Z,55.50
2023-02-27T18:37:12.440Z,55.26
2023-02-27T18:39:39.061Z,55.10
2023-02-27T18:42:06.838Z,55.87
2023-02-27T18:44:38.569Z,56.45
2023-02-27T18:49:59.547Z,56.54
2023-02-27T18:52:26.364Z,56.91
2023-02-27T18:54:53.022Z,56.62
2023-02-27T18:57:19.703Z,57.52
2023-02-27T18:59:47.470Z,57.40
2023-02-27T19:02:15.920Z,57.10
2023-02-27T19:04:42.571Z,57.31
2023-02-27T19:07:09.184Z,57.39
2023-02-27T19:09:35.757Z,57.29
2023-02-27T19:12:02.510Z,57.88
2023-02-27T19:14:29.346Z,58.07
2023-02-27T19:16:56.938Z,58.00
2023-02-27T19:19:23.521Z,57.79
2023-02-27T19:21:50.030Z,57.92
2023-02-27T19:24:16.839Z,58.00
2023-02-27T19:26:43.484Z,58.09
2023-02-27T19:29:10.109Z,58.01
2023-02-27T19:31:36.877Z,58.16
2023-02-27T19:34:03.450Z,58.78
2023-02-27T19:36:31.221Z,58.93
2023-02-27T19:38:58.485Z,58.77
2023-02-27T19:41:26.056Z,58.47
2023-02-27T19:43:53.595Z,59.16
2023-02-27T19:46:26.404Z,59.12
2023-02-27T19:48:54.381Z,59.16
2023-02-27T19:51:21.423Z,59.94
2023-02-27T19:53:51.233Z,58.99
2023-02-27T19:56:20.481Z,59.51
2023-02-27T19:58:48.180Z,60.05
2023-02-27T20:01:28.202Z,60.06
2023-02-27T20:03:59.139Z,60.32
2023-02-27T20:06:28.020Z,59.76
2023-02-27T20:08:55.713Z,59.89
2023-02-27T20:11:22.441Z,60.25
2023-02-27T20:13:50.523Z,60.45
2023-02-27T20:16:20.741Z,60.20
2023-02-27T20:18:48.792Z,60.65
2023-02-27T20:21:18.606Z,60.46
2023-02-27T20:23:46.526Z,61.29
2023-02-27T20:26:17.929Z,61.01
2023-02-27T20:28:45.598Z,61.13
2023-02-27T20:31:13.451Z,61.68
2023-02-27T20:33:41.464Z,60.75
2023-02-27T20:36:10.214Z,61.32
2023-02-27T20:38:40.355Z,61.58
2023-02-27T20:41:08.903Z,61.67
2023-02-27T20:43:38.081Z,61.57
2023-02-27T20:46:09.040Z,62.62
2023-02-27T20:48:35.798Z,62.17
2023-02-27T20:51:09.517Z,62.02
2023-02-27T20:53:38.461Z,62.70
2023-02-27T20:56:06.469Z,62.89
2023-02-27T20:58:33.417Z,62.50
2023-02-27T21:01:04.356Z,62.90
2023-02-27T21:03:38.522Z,62.50
2023-02-27T21:06:06.911Z,62.86
2023-02-27T21:08:39.377Z,61.97
2023-02-27T21:11:10.589Z,61.78
2023-02-27T21:13:37.783Z,61.47
2023-02-27T21:16:06.097Z,60.28
2023-02-27T21:18:34.611Z,59.89
2023-02-27T21:21:11.503Z,62.34
2023-02-27T21:23:41.193Z,61.92
2023-02-27T21:26:09.666Z,61.13
2023-02-27T21:28:47.659Z,60.67
2023-02-27T21:31:16.210Z,59.98
2023-02-27T21:33:43.612Z,60.89
2023-02-27T21:36:10.754Z,59.55
2023-02-27T21:38:38.129Z,60.03
2023-02-27T21:41:11.432Z,61.89
2023-02-27T21:43:40.506Z,60.15
2023-02-27T21:46:09.177Z,63.72
2023-02-27T21:48:36.617Z,60.57
2023-02-27T21:51:04.296Z,61.69
2023-02-27T21:53:31.683Z,61.39
2023-02-27T21:56:06.508Z,63.50
2023-02-27T21:58:33.896Z,61.25
2023-02-27T22:01:00.981Z,60.70
2023-02-27T22:03:34.346Z,59.40
2023-02-27T22:06:02.290Z,59.75
2023-02-27T22:08:29.160Z,59.94
2023-02-27T22:10:58.988Z,61.30
2023-02-27T22:13:27.247Z,61.13
2023-02-27T22:15:54.243Z,61.86
2023-02-27T22:18:21.169Z,60.13
2023-02-27T22:20:48.030Z,60.85
2023-02-27T22:23:15.027Z,61.50
2023-02-27T22:25:41.623Z,61.20
2023-02-27T22:28:08.376Z,60.47
2023-02-27T22:30:35.147Z,60.95
2023-02-27T22:33:01.738Z,60.68
2023-02-27T22:35:28.483Z,59.94
2023-02-27T22:37:55.319Z,61.21
2023-02-27T22:40:21.854Z,61.90
2023-02-27T22:42:48.344Z,60.59
2023-02-27T22:45:15.514Z,60.62
2023-02-27T22:47:42.267Z,61.55
2023-02-27T22:50:09.544Z,61.02
2023-02-27T22:52:37.076Z,61.99
2023-02-27T22:55:04.604Z,59.69
2023-02-27T22:57:31.131Z,61.42
2023-02-27T22:59:57.658Z,61.52
2023-02-27T23:02:24.231Z,61.05
2023-02-27T23:04:50.986Z,60.29
2023-02-27T23:07:17.839Z,59.95
2023-02-27T23:09:44.633Z,61.33
2023-02-27T23:12:11.431Z,61.83
2023-02-27T23:14:37.973Z,59.45
2023-02-27T23:17:04.619Z,59.39
2023-02-27T23:19:32.378Z,60.77
2023-02-27T23:21:59.249Z,61.29
2023-02-27T23:24:25.933Z,62.90
2023-02-27T23:26:53.273Z,61.50
2023-02-27T23:29:20.139Z,62.26
2023-02-27T23:31:46.954Z,62.45
2023-02-27T23:34:14.045Z,62.91
2023-02-27T23:36:40.921Z,62.63
2023-02-27T23:39:09.008Z,60.74
2023-02-27T23:41:35.999Z,61.78
2023-02-27T23:44:02.981Z,61.40
2023-02-27T23:46:30.692Z,61.81
2023-02-27T23:48:58.476Z,61.29
2023-02-27T23:51:25.489Z,64.59
2023-02-27T23:53:52.653Z,62.55
2023-02-27T23:56:25.902Z,64.07
2023-02-27T23:58:54.968Z,61.71
